Time;durP1;ratioP1;P1;durP2;ratioP2;P2;SDS_P1;SDS_P2;PMS_P1;PMS_P2;Temp;Humidity;BMP_temperature;BMP_pressure;BME280_temperature;BME280_humidity;BME280_pressure;Samples;Min_cycle;Max_cycle;Signal;HPM_P1;HPM_P2
2023/07/19 00:01:38;;;;;;;;;3.33;3.33;;;;;;;;5098989;27;45518;-75
2023/07/19 00:04:03;;;;;;;;;4.67;4.00;;;;;;;;5103836;27;45673;-76
2023/07/19 00:06:28;;;;;;;;;5.33;5.33;;;;;;;;5103320;27;46130;-76
2023/07/19 00:08:55;;;;;;;;;4.00;4.00;;;;;;;;5103674;27;45329;-76
2023/07/19 00:11:22;;;;;;;;;6.67;4.33;;;;;;;;5103566;27;45401;-76
2023/07/19 00:13:47;;;;;;;;;6.00;5.67;;;;;;;;5103478;27;45380;-76
2023/07/19 00:16:13;;;;;;;;;8.00;5.00;;;;;;;;5103541;27;45346;-75
2023/07/19 00:18:38;;;;;;;;;6.00;4.67;;;;;;;;5103500;27;45306;-76
2023/07/19 00:21:04;;;;;;;;;6.67;5.67;;;;;;;;5102082;27;45213;-76
2023/07/19 00:23:29;;;;;;;;;4.00;3.00;;;;;;;;5103513;27;45213;-75
2023/07/19 00:25:54;;;;;;;;;6.00;4.33;;;;;;;;5103369;27;45423;-75
2023/07/19 00:28:19;;;;;;;;;5.67;5.67;;;;;;;;5102284;27;45243;-75
2023/07/19 00:30:44;;;;;;;;;6.00;5.00;;;;;;;;5123897;27;45691;-73
2023/07/19 00:33:09;;;;;;;;;7.00;5.00;;;;;;;;5121616;27;45916;-73
2023/07/19 00:35:39;;;;;;;;;4.33;4.33;;;;;;;;5123060;27;46088;-72
2023/07/19 00:38:04;;;;;;;;;4.00;4.00;;;;;;;;5123925;27;45356;-76
2023/07/19 00:40:32;;;;;;;;;7.33;6.33;;;;;;;;5123787;27;45272;-76
2023/07/19 00:42:57;;;;;;;;;5.00;5.00;;;;;;;;5123713;27;45372;-77
2023/07/19 00:45:23;;;;;;;;;5.33;5.33;;;;;;;;5123454;27;45255;-75
2023/07/19 00:47:48;;;;;;;;;5.33;4.33;;;;;;;;5123371;27;45313;-76
2023/07/19 00:50:14;;;;;;;;;5.33;5.33;;;;;;;;5123711;27;45288;-75
2023/07/19 00:52:39;;;;;;;;;5.00;5.00;;;;;;;;5123505;27;45471;-75
2023/07/19 00:55:05;;;;;;;;;4.67;4.67;;;;;;;;5123372;27;45290;-76
2023/07/19 00:57:30;;;;;;;;;6.00;6.00;;;;;;;;5123668;27;45353;-75
2023/07/19 00:59:55;;;;;;;;;4.00;4.00;;;;;;;;5123592;27;45251;-76
2023/07/19 01:02:21;;;;;;;;;6.67;6.67;;;;;;;;5123466;27;45360;-76
2023/07/19 01:04:46;;;;;;;;;4.67;4.67;;;;;;;;5123290;27;45328;-76
2023/07/19 01:07:11;;;;;;;;;4.00;4.00;;;;;;;;5121782;27;45379;-75
2023/07/19 01:09:36;;;;;;;;;4.67;4.67;;;;;;;;5123585;27;45375;-74
2023/07/19 01:12:02;;;;;;;;;7.33;5.00;;;;;;;;5123075;27;45417;-76
2023/07/19 01:14:27;;;;;;;;;6.33;4.00;;;;;;;;5122688;27;46046;-75
2023/07/19 01:16:52;;;;;;;;;3.00;3.00;;;;;;;;5123211;27;45290;-75
2023/07/19 01:19:18;;;;;;;;;4.00;4.00;;;;;;;;5123399;27;45276;-76
2023/07/19 01:21:43;;;;;;;;;6.00;4.67;;;;;;;;5122907;27;45453;-76
2023/07/19 01:24:08;;;;;;;;;5.33;5.00;;;;;;;;5122866;27;46216;-76
2023/07/19 01:26:33;;;;;;;;;3.00;3.00;;;;;;;;5121759;27;45239;-75
2023/07/19 01:28:58;;;;;;;;;6.67;5.00;;;;;;;;5117265;27;45648;-76
2023/07/19 01:31:24;;;;;;;;;5.00;5.00;;;;;;;;5101868;27;45438;-76
2023/07/19 01:33:49;;;;;;;;;5.00;3.00;;;;;;;;5102163;27;46522;-75
2023/07/19 01:36:14;;;;;;;;;6.00;5.33;;;;;;;;5101404;27;45384;-76
2023/07/19 01:38:41;;;;;;;;;4.00;3.67;;;;;;;;5101300;27;45517;-75
2023/07/19 01:41:06;;;;;;;;;4.67;4.00;;;;;;;;5101851;27;45952;-75
2023/07/19 01:43:31;;;;;;;;;6.67;6.00;;;;;;;;5102032;27;45132;-76
2023/07/19 01:45:57;;;;;;;;;4.00;4.00;;;;;;;;5102083;27;45466;-76
2023/07/19 01:48:22;;;;;;;;;5.67;4.00;;;;;;;;5100638;27;45362;-75
2023/07/19 01:50:47;;;;;;;;;4.00;4.00;;;;;;;;5100182;27;47083;-76
2023/07/19 01:53:13;;;;;;;;;5.00;4.33;;;;;;;;5102062;27;45331;-76
2023/07/19 01:55:39;;;;;;;;;6.00;5.00;;;;;;;;5101950;27;45247;-75
2023/07/19 01:58:04;;;;;;;;;3.33;3.00;;;;;;;;5102149;27;45348;-76
2023/07/19 02:00:29;;;;;;;;;5.00;5.00;;;;;;;;5101695;27;45208;-75
2023/07/19 02:02:55;;;;;;;;;4.33;4.33;;;;;;;;5101990;27;45880;-76
2023/07/19 02:05:20;;;;;;;;;6.00;4.00;;;;;;;;5101540;27;45329;-76
2023/07/19 02:07:46;;;;;;;;;4.33;4.33;;;;;;;;5100392;27;45357;-75
2023/07/19 02:10:11;;;;;;;;;3.67;3.67;;;;;;;;5101851;27;45294;-75
2023/07/19 02:12:36;;;;;;;;;5.00;4.00;;;;;;;;5101590;27;45368;-75
2023/07/19 02:15:02;;;;;;;;;6.00;4.33;;;;;;;;5101706;27;45430;-75
2023/07/19 02:17:27;;;;;;;;;5.00;4.67;;;;;;;;5101790;27;45297;-76
2023/07/19 02:19:52;;;;;;;;;4.00;3.00;;;;;;;;5101539;27;45313;-75
2023/07/19 02:22:17;;;;;;;;;6.00;4.00;;;;;;;;5101296;27;46315;-75
2023/07/19 02:24:42;;;;;;;;;5.00;5.00;;;;;;;;5100657;27;45352;-75
2023/07/19 02:27:07;;;;;;;;;5.67;5.67;;;;;;;;5100180;27;45311;-75
2023/07/19 02:29:33;;;;;;;;;7.00;5.67;;;;;;;;5112264;27;45270;-75
2023/07/19 02:31:58;;;;;;;;;5.33;5.00;;;;;;;;5121832;27;46307;-75
2023/07/19 02:34:23;;;;;;;;;4.00;4.00;;;;;;;;5120566;27;45443;-75
2023/07/19 02:36:48;;;;;;;;;5.00;5.00;;;;;;;;5121731;27;45404;-76
2023/07/19 02:39:14;;;;;;;;;5.67;5.67;;;;;;;;5121932;27;45293;-75
2023/07/19 02:41:39;;;;;;;;;5.00;4.67;;;;;;;;5120468;27;47333;-76
2023/07/19 02:44:04;;;;;;;;;5.33;4.00;;;;;;;;5121845;27;45324;-75
2023/07/19 02:46:29;;;;;;;;;6.00;6.00;;;;;;;;5120448;27;45300;-75
2023/07/19 02:48:55;;;;;;;;;5.00;5.00;;;;;;;;5120402;27;47363;-76
2023/07/19 02:51:20;;;;;;;;;5.00;5.00;;;;;;;;5121244;27;45335;-76
2023/07/19 02:53:45;;;;;;;;;7.00;6.00;;;;;;;;5121814;27;45312;-76
2023/07/19 02:56:10;;;;;;;;;4.00;4.00;;;;;;;;5121852;27;45624;-75
2023/07/19 02:58:35;;;;;;;;;4.00;4.00;;;;;;;;5121721;27;45305;-75
2023/07/19 03:01:01;;;;;;;;;4.33;4.33;;;;;;;;5121515;27;45307;-76
2023/07/19 03:03:26;;;;;;;;;7.33;5.33;;;;;;;;5121443;27;45239;-76
2023/07/19 03:05:51;;;;;;;;;8.00;6.67;;;;;;;;5121443;27;45338;-75
2023/07/19 03:08:16;;;;;;;;;3.33;3.33;;;;;;;;5121566;27;45316;-75
2023/07/19 03:10:41;;;;;;;;;6.00;6.00;;;;;;;;5120117;27;48300;-75
2023/07/19 03:13:07;;;;;;;;;5.00;5.00;;;;;;;;5121447;27;45186;-75
2023/07/19 03:15:33;;;;;;;;;6.00;5.00;;;;;;;;5121344;27;45538;-75
2023/07/19 03:17:58;;;;;;;;;5.00;5.00;;;;;;;;5119949;27;47576;-76
2023/07/19 03:20:24;;;;;;;;;5.67;5.33;;;;;;;;5120790;27;45216;-76
2023/07/19 03:22:49;;;;;;;;;5.00;4.33;;;;;;;;5119894;27;45249;-76
2023/07/19 03:25:14;;;;;;;;;6.00;6.00;;;;;;;;5121437;27;45493;-76
2023/07/19 03:27:39;;;;;;;;;4.67;4.67;;;;;;;;5121342;27;45440;-76
2023/07/19 03:30:06;;;;;;;;;5.00;5.00;;;;;;;;5105567;27;45278;-76
2023/07/19 03:32:31;;;;;;;;;7.00;6.00;;;;;;;;5100209;27;45332;-76
2023/07/19 03:34:57;;;;;;;;;6.00;5.33;;;;;;;;5100570;27;45555;-75
2023/07/19 03:37:22;;;;;;;;;4.00;2.33;;;;;;;;5099817;27;45535;-75
2023/07/19 03:39:47;;;;;;;;;4.33;4.33;;;;;;;;5098476;27;48410;-76
2023/07/19 03:42:12;;;;;;;;;5.67;4.00;;;;;;;;5100574;27;45255;-76
2023/07/19 03:44:37;;;;;;;;;5.00;5.00;;;;;;;;5100566;27;45440;-75
2023/07/19 03:47:03;;;;;;;;;4.33;4.00;;;;;;;;5081787;27;46432;-76
2023/07/19 03:49:28;;;;;;;;;5.00;5.00;;;;;;;;5100260;27;45598;-75
2023/07/19 03:51:53;;;;;;;;;4.00;4.00;;;;;;;;5099985;27;45499;-76
2023/07/19 03:54:18;;;;;;;;;5.33;5.33;;;;;;;;5081924;27;45320;-75
2023/07/19 03:56:43;;;;;;;;;4.00;4.00;;;;;;;;5100165;27;45307;-75
2023/07/19 03:59:09;;;;;;;;;5.00;5.00;;;;;;;;5100160;27;46297;-75
2023/07/19 04:01:34;;;;;;;;;4.67;4.67;;;;;;;;5100241;27;45300;-75
2023/07/19 04:03:59;;;;;;;;;3.67;3.67;;;;;;;;5100303;27;45542;-75
2023/07/19 04:06:24;;;;;;;;;5.00;4.67;;;;;;;;5081461;27;45920;-76
2023/07/19 04:08:49;;;;;;;;;3.33;3.33;;;;;;;;5100070;27;45307;-76
2023/07/19 04:11:15;;;;;;;;;3.67;2.33;;;;;;;;5100036;27;45343;-75
2023/07/19 04:13:40;;;;;;;;;3.67;3.67;;;;;;;;5100351;27;45314;-75
2023/07/19 04:16:05;;;;;;;;;4.67;3.00;;;;;;;;5099859;27;45330;-75
2023/07/19 04:18:30;;;;;;;;;3.00;3.00;;;;;;;;5099953;27;45401;-76
2023/07/19 04:20:57;;;;;;;;;4.00;4.00;;;;;;;;5087950;27;45372;-77
2023/07/19 04:23:22;;;;;;;;;5.00;5.00;;;;;;;;5052229;28;45527;-76
2023/07/19 04:25:48;;;;;;;;;4.00;3.00;;;;;;;;5067726;28;45256;-76
2023/07/19 04:28:13;;;;;;;;;5.00;5.00;;;;;;;;5070072;28;45390;-75
2023/07/19 04:30:39;;;;;;;;;2.33;2.33;;;;;;;;5099049;27;45221;-76
2023/07/19 04:33:04;;;;;;;;;5.67;5.67;;;;;;;;5099819;27;45223;-75
2023/07/19 04:35:29;;;;;;;;;4.67;4.67;;;;;;;;5099429;27;45453;-75
2023/07/19 04:37:55;;;;;;;;;5.67;5.67;;;;;;;;5099667;27;46207;-76
2023/07/19 04:40:20;;;;;;;;;3.33;3.33;;;;;;;;5099517;27;45300;-75
2023/07/19 04:42:45;;;;;;;;;5.67;5.00;;;;;;;;5099734;27;45354;-75
2023/07/19 04:45:11;;;;;;;;;5.00;5.00;;;;;;;;5099645;27;45282;-75
2023/07/19 04:47:39;;;;;;;;;3.33;3.00;;;;;;;;5081045;27;46994;-76
2023/07/19 04:50:06;;;;;;;;;6.00;4.33;;;;;;;;5084314;27;45437;-75
2023/07/19 04:52:31;;;;;;;;;3.00;3.00;;;;;;;;5102859;27;45342;-76
2023/07/19 04:54:57;;;;;;;;;3.00;2.67;;;;;;;;5102950;27;45322;-75
2023/07/19 04:57:22;;;;;;;;;3.00;3.00;;;;;;;;5104707;27;45256;-77
2023/07/19 04:59:47;;;;;;;;;3.67;2.33;;;;;;;;5110481;27;44660;-76
2023/07/19 05:02:13;;;;;;;;;3.67;3.00;;;;;;;;5107789;27;45216;-76
2023/07/19 05:04:38;;;;;;;;;2.67;2.67;;;;;;;;5104462;27;45180;-77
2023/07/19 05:07:04;;;;;;;;;2.00;2.00;;;;;;;;5074341;28;47840;-77
2023/07/19 05:09:29;;;;;;;;;3.00;3.00;;;;;;;;5063070;28;45685;-76
2023/07/19 05:11:54;;;;;;;;;2.00;2.00;;;;;;;;5085123;27;45333;-77
2023/07/19 05:14:19;;;;;;;;;2.33;2.00;;;;;;;;5085224;28;45129;-76
2023/07/19 05:16:45;;;;;;;;;3.33;2.00;;;;;;;;5076963;27;48016;-78
2023/07/19 05:19:11;;;;;;;;;1.00;1.00;;;;;;;;5067441;27;45329;-79
2023/07/19 05:21:36;;;;;;;;;3.67;2.67;;;;;;;;5081965;27;45481;-78
2023/07/19 05:24:01;;;;;;;;;2.00;2.00;;;;;;;;5058404;28;45445;-77
2023/07/19 05:26:26;;;;;;;;;4.67;2.00;;;;;;;;5054960;28;47501;-75
2023/07/19 05:28:52;;;;;;;;;3.00;3.00;;;;;;;;5070347;27;45418;-75
2023/07/19 05:31:18;;;;;;;;;4.00;3.00;;;;;;;;5102452;27;45236;-74
2023/07/19 05:33:43;;;;;;;;;2.67;2.00;;;;;;;;5102285;27;45313;-74
2023/07/19 05:36:08;;;;;;;;;4.00;3.00;;;;;;;;5101994;27;45361;-74
2023/07/19 05:38:33;;;;;;;;;3.00;3.00;;;;;;;;5083863;27;45311;-75
2023/07/19 05:41:02;;;;;;;;;3.33;2.00;;;;;;;;5112803;27;45487;-74
2023/07/19 05:43:27;;;;;;;;;3.00;3.00;;;;;;;;5122157;27;45347;-74
2023/07/19 05:45:53;;;;;;;;;2.67;2.67;;;;;;;;5119208;27;47461;-74
2023/07/19 05:48:18;;;;;;;;;4.67;2.33;;;;;;;;5121222;27;45297;-75
2023/07/19 05:50:43;;;;;;;;;3.33;3.33;;;;;;;;5122648;27;45192;-74
2023/07/19 05:53:08;;;;;;;;;4.33;2.00;;;;;;;;5121560;27;47517;-76
2023/07/19 05:55:33;;;;;;;;;2.33;2.33;;;;;;;;5122624;27;46206;-75
2023/07/19 05:57:59;;;;;;;;;4.00;3.00;;;;;;;;5122613;27;45223;-76
2023/07/19 06:00:24;;;;;;;;;1.33;1.33;;;;;;;;5122903;27;45408;-75
2023/07/19 06:02:51;;;;;;;;;1.00;1.00;;;;;;;;5106892;27;46393;-77
2023/07/19 06:05:17;;;;;;;;;1.67;1.33;;;;;;;;5081113;27;45930;-76
2023/07/19 06:07:42;;;;;;;;;0.33;0.33;;;;;;;;5114196;27;45798;-75
2023/07/19 06:10:08;;;;;;;;;3.33;2.33;;;;;;;;5080188;28;45378;-76
2023/07/19 06:12:33;;;;;;;;;1.00;1.00;;;;;;;;5079921;28;47274;-75
2023/07/19 06:14:58;;;;;;;;;2.00;2.00;;;;;;;;5080992;27;46393;-76
2023/07/19 06:17:24;;;;;;;;;4.00;2.00;;;;;;;;5081311;27;45362;-76
2023/07/19 06:19:49;;;;;;;;;2.33;1.00;;;;;;;;5081692;27;45374;-76
2023/07/19 06:22:14;;;;;;;;;2.33;1.00;;;;;;;;5081103;28;45377;-76
2023/07/19 06:24:39;;;;;;;;;1.00;1.00;;;;;;;;5084999;27;45497;-77
2023/07/19 06:27:05;;;;;;;;;2.00;2.00;;;;;;;;5082482;28;45330;-78
2023/07/19 06:29:30;;;;;;;;;1.00;1.00;;;;;;;;5104448;27;45523;-78
2023/07/19 06:31:55;;;;;;;;;1.33;1.00;;;;;;;;5123621;27;46038;-75
2023/07/19 06:34:20;;;;;;;;;3.00;2.00;;;;;;;;5113543;27;47383;-75
2023/07/19 06:36:46;;;;;;;;;0.00;0.00;;;;;;;;5097364;27;45544;-77
2023/07/19 06:39:11;;;;;;;;;1.00;1.00;;;;;;;;5098829;27;45496;-75
2023/07/19 06:41:36;;;;;;;;;2.00;0.67;;;;;;;;5099529;27;45682;-75
2023/07/19 06:44:01;;;;;;;;;1.67;1.67;;;;;;;;5099282;27;46010;-74
2023/07/19 06:46:26;;;;;;;;;1.67;1.67;;;;;;;;5099030;27;45376;-74
2023/07/19 06:48:51;;;;;;;;;2.67;2.33;;;;;;;;5101483;27;45283;-78
2023/07/19 06:51:17;;;;;;;;;1.00;1.00;;;;;;;;5087364;27;45951;-78
2023/07/19 06:53:42;;;;;;;;;3.00;2.00;;;;;;;;5099757;27;48149;-77
2023/07/19 06:56:07;;;;;;;;;4.00;3.00;;;;;;;;5100651;27;45370;-77
2023/07/19 06:58:33;;;;;;;;;2.00;1.67;;;;;;;;5094778;27;45208;-77
2023/07/19 07:00:58;;;;;;;;;1.00;1.00;;;;;;;;5097413;27;45427;-78
2023/07/19 07:03:24;;;;;;;;;1.67;0.67;;;;;;;;5099603;27;47290;-77
2023/07/19 07:05:49;;;;;;;;;1.00;1.00;;;;;;;;5100209;27;45486;-78
2023/07/19 07:08:15;;;;;;;;;0.67;0.33;;;;;;;;5098227;27;45449;-76
2023/07/19 07:10:43;;;;;;;;;0.33;0.33;;;;;;;;5099991;27;45390;-75
2023/07/19 07:13:08;;;;;;;;;0.00;0.00;;;;;;;;5099213;27;47158;-76
2023/07/19 07:15:33;;;;;;;;;1.00;1.00;;;;;;;;5100609;27;45354;-76
2023/07/19 07:17:58;;;;;;;;;0.33;0.33;;;;;;;;5099425;27;45572;-76
2023/07/19 07:20:24;;;;;;;;;0.00;0.00;;;;;;;;5098153;27;46137;-77
2023/07/19 07:22:50;;;;;;;;;0.67;0.67;;;;;;;;5100595;27;45338;-76
2023/07/19 07:25:15;;;;;;;;;0.00;0.00;;;;;;;;5100540;27;45376;-77
2023/07/19 07:27:40;;;;;;;;;0.33;0.33;;;;;;;;5100655;27;45476;-76
2023/07/19 07:30:07;;;;;;;;;0.33;0.33;;;;;;;;5115558;27;45321;-76
2023/07/19 07:32:33;;;;;;;;;1.00;1.00;;;;;;;;5121017;27;45371;-76
2023/07/19 07:34:58;;;;;;;;;0.67;0.67;;;;;;;;5120982;27;45256;-76
2023/07/19 07:37:24;;;;;;;;;0.00;0.00;;;;;;;;5121228;27;45185;-77
2023/07/19 07:39:51;;;;;;;;;2.00;1.00;;;;;;;;5120800;27;45473;-76
2023/07/19 07:42:16;;;;;;;;;0.00;0.00;;;;;;;;5119744;27;46967;-77
2023/07/19 07:44:41;;;;;;;;;1.00;1.00;;;;;;;;5119528;27;45448;-77
2023/07/19 07:47:07;;;;;;;;;1.67;1.67;;;;;;;;5120911;27;45553;-77
2023/07/19 07:49:32;;;;;;;;;1.00;1.00;;;;;;;;5120869;27;45432;-76
2023/07/19 07:51:58;;;;;;;;;1.33;0.00;;;;;;;;5119081;27;47345;-77
2023/07/19 07:54:23;;;;;;;;;1.00;1.00;;;;;;;;5121071;27;45354;-75
2023/07/19 07:56:48;;;;;;;;;2.00;1.67;;;;;;;;5120934;27;45333;-75
2023/07/19 07:59:15;;;;;;;;;4.00;2.33;;;;;;;;5119550;27;45926;-76
2023/07/19 08:01:41;;;;;;;;;2.00;2.00;;;;;;;;5120967;27;46199;-77
2023/07/19 08:04:09;;;;;;;;;2.00;2.00;;;;;;;;5119368;27;45306;-77
2023/07/19 08:06:35;;;;;;;;;1.00;1.00;;;;;;;;5120917;27;45297;-77
2023/07/19 08:09:00;;;;;;;;;4.00;1.00;;;;;;;;5102182;27;46024;-77
2023/07/19 08:11:26;;;;;;;;;2.67;1.00;;;;;;;;5120573;27;46237;-76
2023/07/19 08:14:06;;;;;;;;;3.00;2.00;;;;;;;;5119923;27;45342;-77
2023/07/19 08:16:33;;;;;;;;;1.33;1.33;;;;;;;;5119998;27;45379;-77
2023/07/19 08:19:06;;;;;;;;;0.00;0.00;;;;;;;;5120248;27;45856;-77
2023/07/19 08:21:32;;;;;;;;;3.00;3.00;;;;;;;;5118446;27;48157;-77
2023/07/19 08:24:00;;;;;;;;;3.33;2.00;;;;;;;;5120756;27;45361;-77
2023/07/19 08:26:27;;;;;;;;;2.00;2.00;;;;;;;;5122656;27;45317;-78
2023/07/19 08:28:55;;;;;;;;;2.00;2.00;;;;;;;;5116512;27;45876;-75
2023/07/19 08:31:34;;;;;;;;;2.00;1.00;;;;;;;;5101395;27;47259;-76
2023/07/19 08:33:59;;;;;;;;;0.50;0.50;;;;;;;;5103156;27;45297;-77
2023/07/19 08:36:24;;;;;;;;;1.33;1.33;;;;;;;;5101586;27;45240;-75
2023/07/19 08:38:50;;;;;;;;;0.67;0.67;;;;;;;;5101739;27;46981;-75
2023/07/19 08:41:20;;;;;;;;;2.67;2.00;;;;;;;;5101495;27;47956;-76
2023/07/19 08:43:46;;;;;;;;;1.33;1.33;;;;;;;;5101650;27;45930;-76
2023/07/19 08:46:14;;;;;;;;;3.00;2.00;;;;;;;;5101771;27;45356;-77
2023/07/19 08:48:44;;;;;;;;;2.00;2.00;;;;;;;;5100922;27;45310;-77
2023/07/19 08:51:09;;;;;;;;;1.00;1.00;;;;;;;;5100864;27;45470;-75
2023/07/19 08:53:35;;;;;;;;;2.67;2.00;;;;;;;;5100681;27;45374;-76
2023/07/19 08:58:59;;;;;;;;;1.00;1.00;;;;;;;;5101951;27;46155;-74
2023/07/19 09:01:25;;;;;;;;;1.67;1.67;;;;;;;;5099676;27;45420;-75
2023/07/19 09:03:53;;;;;;;;;1.00;1.00;;;;;;;;5102824;27;45573;-75
2023/07/19 09:06:27;;;;;;;;;2.00;1.00;;;;;;;;5100767;27;45486;-73
2023/07/19 09:08:56;;;;;;;;;0.00;0.00;;;;;;;;5101008;27;45468;-76
2023/07/19 09:11:25;;;;;;;;;0.25;0.25;;;;;;;;5102360;27;46707;-76
2023/07/19 09:13:54;;;;;;;;;0.33;0.33;;;;;;;;5102309;27;45217;-76
2023/07/19 09:16:32;;;;;;;;;1.33;1.33;;;;;;;;5102748;27;45340;-77
2023/07/19 09:19:01;;;;;;;;;2.00;2.00;;;;;;;;5100684;27;46216;-77
2023/07/19 09:21:42;;;;;;;;;2.33;2.00;;;;;;;;5101617;27;45739;-76
2023/07/19 09:24:08;;;;;;;;;1.00;1.00;;;;;;;;5101104;27;45259;-77
2023/07/19 09:26:46;;;;;;;;;3.33;2.00;;;;;;;;5097632;27;45287;-74
2023/07/19 09:29:11;;;;;;;;;1.00;1.00;;;;;;;;5101807;27;45433;-78
2023/07/19 09:31:50;;;;;;;;;3.67;3.00;;;;;;;;5101710;27;45996;-77
2023/07/19 09:34:15;;;;;;;;;3.33;2.33;;;;;;;;5100132;27;45354;-78
2023/07/19 09:36:40;;;;;;;;;4.00;3.33;;;;;;;;5101810;27;45457;-75
2023/07/19 09:39:06;;;;;;;;;1.67;1.00;;;;;;;;5101787;27;45464;-76
2023/07/19 09:41:31;;;;;;;;;2.00;2.00;;;;;;;;5101461;27;45594;-75
2023/07/19 09:43:57;;;;;;;;;2.00;2.00;;;;;;;;5082459;27;45327;-75
2023/07/19 09:46:24;;;;;;;;;3.00;2.67;;;;;;;;5097751;27;45198;-78
2023/07/19 09:48:49;;;;;;;;;2.00;2.00;;;;;;;;5101723;27;45497;-77
2023/07/19 09:51:15;;;;;;;;;2.33;2.33;;;;;;;;5100823;27;45224;-76
2023/07/19 09:53:42;;;;;;;;;2.00;1.00;;;;;;;;5083198;27;45409;-75
2023/07/19 09:56:08;;;;;;;;;2.00;2.00;;;;;;;;5061777;27;45459;-75
2023/07/19 09:58:34;;;;;;;;;2.33;2.33;;;;;;;;5080925;28;45493;-74
2023/07/19 10:00:59;;;;;;;;;3.67;2.00;;;;;;;;5082210;27;46587;-74
2023/07/19 10:03:24;;;;;;;;;2.00;2.00;;;;;;;;5070327;28;45845;-76
2023/07/19 10:05:59;;;;;;;;;3.33;3.33;;;;;;;;5064672;28;45346;-77
2023/07/19 10:08:24;;;;;;;;;3.67;3.67;;;;;;;;5080051;28;46112;-78
2023/07/19 10:10:55;;;;;;;;;2.33;2.33;;;;;;;;5064209;28;45355;-78
2023/07/19 10:13:27;;;;;;;;;3.00;3.00;;;;;;;;5042211;28;45939;-79
2023/07/19 10:15:53;;;;;;;;;5.00;5.00;;;;;;;;5042758;28;45355;-78
2023/07/19 10:18:19;;;;;;;;;3.00;3.00;;;;;;;;5085165;27;45447;-77
2023/07/19 10:20:58;;;;;;;;;3.67;3.00;;;;;;;;5083809;27;47969;-77
2023/07/19 10:23:23;;;;;;;;;2.67;2.67;;;;;;;;5082766;27;45736;-75
2023/07/19 10:25:49;;;;;;;;;2.00;2.00;;;;;;;;5080881;27;45567;-77
2023/07/19 10:28:24;;;;;;;;;1.00;1.00;;;;;;;;5086315;27;45366;-76
2023/07/19 10:30:51;;;;;;;;;2.00;2.00;;;;;;;;5077593;27;45484;-76
2023/07/19 10:33:23;;;;;;;;;4.33;3.00;;;;;;;;5079397;28;45169;-79
2023/07/19 10:35:49;;;;;;;;;2.33;2.33;;;;;;;;5071680;27;45457;-79
2023/07/19 10:38:16;;;;;;;;;4.67;4.67;;;;;;;;5080720;28;45408;-77
2023/07/19 10:40:43;;;;;;;;;3.00;3.00;;;;;;;;5088825;27;46097;-76
2023/07/19 10:43:08;;;;;;;;;4.00;4.00;;;;;;;;5101232;27;45274;-75
2023/07/19 10:45:33;;;;;;;;;4.00;4.00;;;;;;;;5098957;27;45349;-76
2023/07/19 10:47:59;;;;;;;;;4.67;4.33;;;;;;;;5100855;27;45545;-78
2023/07/19 10:50:25;;;;;;;;;3.00;3.00;;;;;;;;5098233;27;46377;-76
2023/07/19 10:52:50;;;;;;;;;2.33;2.33;;;;;;;;5097965;27;45231;-77
2023/07/19 10:55:15;;;;;;;;;4.00;4.00;;;;;;;;5096291;27;45288;-76
2023/07/19 10:57:40;;;;;;;;;6.00;4.33;;;;;;;;5095540;27;45404;-78
2023/07/19 11:00:10;;;;;;;;;3.33;3.33;;;;;;;;5098703;27;47431;-76
2023/07/19 11:02:35;;;;;;;;;3.33;3.33;;;;;;;;5100940;27;45231;-78
2023/07/19 11:05:01;;;;;;;;;3.00;3.00;;;;;;;;5100617;27;45554;-78
2023/07/19 11:07:32;;;;;;;;;4.00;4.00;;;;;;;;5099391;27;47612;-77
2023/07/19 11:09:59;;;;;;;;;4.67;4.67;;;;;;;;5100606;27;46538;-77
2023/07/19 11:12:24;;;;;;;;;5.67;3.67;;;;;;;;5099199;27;45308;-78
2023/07/19 11:14:57;;;;;;;;;4.33;4.33;;;;;;;;5100640;27;45483;-76
2023/07/19 11:17:24;;;;;;;;;5.00;5.00;;;;;;;;5098391;27;46006;-78
2023/07/19 11:19:49;;;;;;;;;4.33;4.00;;;;;;;;5099527;27;45459;-78
2023/07/19 11:22:20;;;;;;;;;4.00;4.00;;;;;;;;5100273;27;45365;-78
2023/07/19 11:24:45;;;;;;;;;3.67;3.33;;;;;;;;5100618;27;45225;-77
2023/07/19 11:27:12;;;;;;;;;6.00;4.33;;;;;;;;5099010;27;47128;-77
2023/07/19 11:29:37;;;;;;;;;4.33;3.33;;;;;;;;5106294;27;47723;-78
2023/07/19 11:32:12;;;;;;;;;4.00;4.00;;;;;;;;5100304;27;45368;-79
2023/07/19 11:34:43;;;;;;;;;1.67;1.67;;;;;;;;5098975;27;45306;-78
2023/07/19 11:37:15;;;;;;;;;4.33;4.00;;;;;;;;5098903;27;47129;-78
2023/07/19 11:39:40;;;;;;;;;6.00;5.67;;;;;;;;5100297;27;46514;-78
2023/07/19 11:42:05;;;;;;;;;3.33;3.33;;;;;;;;5098445;27;45378;-79
2023/07/19 11:44:32;;;;;;;;;4.00;4.00;;;;;;;;5097812;27;45315;-78
2023/07/19 11:46:58;;;;;;;;;5.00;5.00;;;;;;;;5093872;27;45476;-77
2023/07/19 11:49:23;;;;;;;;;3.67;3.00;;;;;;;;5107112;27;48032;-77
2023/07/19 11:51:48;;;;;;;;;5.00;5.00;;;;;;;;5115491;27;45356;-76
2023/07/19 11:54:15;;;;;;;;;2.67;2.67;;;;;;;;5117107;27;45301;-77
2023/07/19 11:56:40;;;;;;;;;3.00;3.00;;;;;;;;5084559;28;45189;-77
2023/07/19 11:59:05;;;;;;;;;5.67;4.67;;;;;;;;5123838;27;47054;-77
2023/07/19 12:01:31;;;;;;;;;4.00;4.00;;;;;;;;5123323;27;45540;-78
2023/07/19 12:04:01;;;;;;;;;5.00;4.33;;;;;;;;5087952;28;45366;-77
2023/07/19 12:06:27;;;;;;;;;5.00;5.00;;;;;;;;5116473;27;46623;-77
2023/07/19 12:08:52;;;;;;;;;5.00;4.00;;;;;;;;5082788;28;46655;-76
2023/07/19 12:11:18;;;;;;;;;5.00;5.00;;;;;;;;5083021;27;45131;-75
2023/07/19 12:13:43;;;;;;;;;3.67;3.67;;;;;;;;5116116;27;45269;-76
2023/07/19 12:16:08;;;;;;;;;5.67;5.67;;;;;;;;5083076;28;45274;-76
2023/07/19 12:18:33;;;;;;;;;4.67;4.67;;;;;;;;5115943;27;46414;-76
2023/07/19 12:20:59;;;;;;;;;5.00;5.00;;;;;;;;5085689;28;45212;-78
2023/07/19 12:23:24;;;;;;;;;4.00;4.00;;;;;;;;5081968;28;45271;-77
2023/07/19 12:25:50;;;;;;;;;4.00;3.33;;;;;;;;5116228;27;47403;-76
2023/07/19 12:28:16;;;;;;;;;4.00;4.00;;;;;;;;5101994;27;46780;-75
2023/07/19 12:30:42;;;;;;;;;4.67;4.67;;;;;;;;5121886;27;45483;-74
2023/07/19 12:33:07;;;;;;;;;4.00;4.00;;;;;;;;5114099;27;45984;-75
2023/07/19 12:35:33;;;;;;;;;5.00;4.67;;;;;;;;5103078;27;45376;-76
2023/07/19 12:37:58;;;;;;;;;5.33;4.67;;;;;;;;5102945;27;45344;-75
2023/07/19 12:40:23;;;;;;;;;5.00;5.00;;;;;;;;5103779;27;45314;-74
2023/07/19 12:42:48;;;;;;;;;4.00;4.00;;;;;;;;5102123;27;45414;-74
2023/07/19 12:45:14;;;;;;;;;9.00;8.33;;;;;;;;5082373;27;46961;-75
2023/07/19 12:47:39;;;;;;;;;6.67;6.67;;;;;;;;5102419;27;45328;-74
2023/07/19 12:50:05;;;;;;;;;5.33;5.33;;;;;;;;5102863;27;45375;-76
2023/07/19 12:52:30;;;;;;;;;7.33;7.33;;;;;;;;5102900;27;45391;-75
2023/07/19 12:54:56;;;;;;;;;7.67;7.33;;;;;;;;5103140;27;45454;-75
2023/07/19 12:57:21;;;;;;;;;8.00;8.00;;;;;;;;5102927;27;45217;-75
2023/07/19 12:59:46;;;;;;;;;6.00;5.00;;;;;;;;5102715;27;45314;-75
2023/07/19 13:02:11;;;;;;;;;5.67;5.67;;;;;;;;5103172;27;45284;-75
2023/07/19 13:04:37;;;;;;;;;5.00;5.00;;;;;;;;5102510;27;45573;-75
2023/07/19 13:07:03;;;;;;;;;4.00;3.33;;;;;;;;5102692;27;45357;-75
2023/07/19 13:09:28;;;;;;;;;7.00;7.00;;;;;;;;5102042;27;45303;-75
2023/07/19 13:11:53;;;;;;;;;7.33;7.33;;;;;;;;5102812;27;45302;-74
2023/07/19 13:14:18;;;;;;;;;8.00;8.00;;;;;;;;5102656;27;45538;-75
2023/07/19 13:16:44;;;;;;;;;5.00;5.00;;;;;;;;5102679;27;46287;-74
2023/07/19 13:19:09;;;;;;;;;8.33;8.33;;;;;;;;5102538;27;45251;-73
2023/07/19 13:21:34;;;;;;;;;7.00;7.00;;;;;;;;5102546;27;45162;-75
2023/07/19 13:24:00;;;;;;;;;7.00;7.00;;;;;;;;5102407;27;45450;-74
2023/07/19 13:26:25;;;;;;;;;6.33;6.33;;;;;;;;5099922;27;45327;-75
2023/07/19 13:28:50;;;;;;;;;5.00;5.00;;;;;;;;5086618;27;45224;-74
2023/07/19 13:31:16;;;;;;;;;6.67;6.00;;;;;;;;5102463;27;45314;-74
2023/07/19 13:33:41;;;;;;;;;7.33;6.67;;;;;;;;5102378;27;45545;-74
2023/07/19 13:36:06;;;;;;;;;5.33;5.33;;;;;;;;5101977;27;45467;-74
2023/07/19 13:38:31;;;;;;;;;5.67;5.33;;;;;;;;5102333;27;45394;-74
2023/07/19 13:40:57;;;;;;;;;6.00;5.67;;;;;;;;5092745;27;45434;-74
2023/07/19 13:43:22;;;;;;;;;6.00;5.00;;;;;;;;5076415;28;45234;-74
2023/07/19 13:45:47;;;;;;;;;3.67;3.67;;;;;;;;5080839;28;45351;-74
2023/07/19 13:48:12;;;;;;;;;5.00;5.00;;;;;;;;5076787;28;45490;-74
2023/07/19 13:50:37;;;;;;;;;1.00;1.00;;;;;;;;5081633;28;45291;-74
2023/07/19 13:53:03;;;;;;;;;6.00;6.00;;;;;;;;5080047;28;45464;-74
2023/07/19 13:55:29;;;;;;;;;6.00;6.00;;;;;;;;5062896;28;46128;-74
2023/07/19 13:57:54;;;;;;;;;5.00;5.00;;;;;;;;5060929;28;45405;-73
2023/07/19 14:00:20;;;;;;;;;5.33;5.33;;;;;;;;5061313;28;45389;-74
2023/07/19 14:02:45;;;;;;;;;4.33;4.33;;;;;;;;5061151;28;45630;-73
2023/07/19 14:05:12;;;;;;;;;4.00;4.00;;;;;;;;5060863;28;45355;-73
2023/07/19 14:07:37;;;;;;;;;5.00;5.00;;;;;;;;5061065;28;45258;-74
2023/07/19 14:10:04;;;;;;;;;3.00;3.00;;;;;;;;5061295;28;45318;-73
2023/07/19 14:12:29;;;;;;;;;5.00;5.00;;;;;;;;5042683;28;46133;-73
2023/07/19 14:14:55;;;;;;;;;5.00;5.00;;;;;;;;5076788;28;46144;-74
2023/07/19 14:17:21;;;;;;;;;5.00;5.00;;;;;;;;5081256;28;45296;-75
2023/07/19 14:19:46;;;;;;;;;5.00;5.00;;;;;;;;5080948;28;45335;-74
2023/07/19 14:22:11;;;;;;;;;5.00;4.33;;;;;;;;5080009;28;45597;-74
2023/07/19 14:24:36;;;;;;;;;5.00;5.00;;;;;;;;5081005;28;45959;-76
2023/07/19 14:27:02;;;;;;;;;3.33;3.33;;;;;;;;5078748;27;45448;-74
2023/07/19 14:29:27;;;;;;;;;3.00;3.00;;;;;;;;5090835;27;45394;-74
2023/07/19 14:31:52;;;;;;;;;5.00;5.00;;;;;;;;5101014;27;45323;-75
2023/07/19 14:34:18;;;;;;;;;4.67;4.00;;;;;;;;5082468;27;48540;-74
2023/07/19 14:36:43;;;;;;;;;3.00;3.00;;;;;;;;5100813;27;45259;-73
2023/07/19 14:39:08;;;;;;;;;3.00;3.00;;;;;;;;5101325;27;45378;-74